createdAt,value
2017-12-03T00:00:11.189Z,66.97
2017-12-03T00:02:47.785Z,66.51
2017-12-03T00:05:20.192Z,67.69
2017-12-03T00:07:53.503Z,67.76
2017-12-03T00:10:31.898Z,68.12
2017-12-03T00:13:07.032Z,68.36
2017-12-03T00:15:40.108Z,68.52
2017-12-03T00:18:12.044Z,68.83
2017-12-03T00:20:54.324Z,68.59
2017-12-03T00:23:26.216Z,68.10
2017-12-03T00:25:59.249Z,67.99
2017-12-03T00:28:32.017Z,68.12
2017-12-03T00:31:05.314Z,67.52
2017-12-03T00:33:37.014Z,67.82
2017-12-03T00:36:09.319Z,67.73
2017-12-03T00:38:43.114Z,67.34
2017-12-03T00:41:15.739Z,66.76
2017-12-03T00:43:47.137Z,66.89
2017-12-03T00:46:24.244Z,67.53
2017-12-03T00:49:01.061Z,66.86
2017-12-03T00:51:33.530Z,65.98
2017-12-03T00:54:05.437Z,65.47
2017-12-03T00:56:41.708Z,65.61
2017-12-03T00:59:14.615Z,66.59
2017-12-03T01:01:49.314Z,66.30
2017-12-03T01:04:20.798Z,67.29
2017-12-03T01:06:52.406Z,67.30
2017-12-03T01:09:24.412Z,67.04
2017-12-03T01:11:57.522Z,66.98
2017-12-03T01:14:41.514Z,67.29
2017-12-03T01:17:13.399Z,68.99
2017-12-03T01:19:46.608Z,69.02
2017-12-03T01:22:27.732Z,68.41
2017-12-03T01:24:59.613Z,68.58
2017-12-03T01:27:33.346Z,68.49
2017-12-03T01:30:07.413Z,67.71
2017-12-03T01:32:41.256Z,66.18
2017-12-03T01:35:13.755Z,66.16
2017-12-03T01:37:47.147Z,66.22
2017-12-03T01:40:19.161Z,65.34
2017-12-03T01:42:50.670Z,65.70
2017-12-03T01:45:23.871Z,66.80
2017-12-03T01:48:00.896Z,67.37
2017-12-03T01:50:33.379Z,68.37
2017-12-03T01:53:05.480Z,68.51
2017-12-03T01:55:37.781Z,68.68
2017-12-03T01:58:09.336Z,68.77
2017-12-03T02:00:45.303Z,67.84
2017-12-03T02:03:18.274Z,67.10
2017-12-03T02:05:56.587Z,67.71
2017-12-03T02:08:28.476Z,67.29
2017-12-03T02:11:00.158Z,67.21
2017-12-03T02:16:21.150Z,68.26
2017-12-03T02:18:53.751Z,67.81
2017-12-03T02:21:25.060Z,68.58
2017-12-03T02:23:57.514Z,68.50
2017-12-03T02:26:29.553Z,68.79
2017-12-03T02:29:01.461Z,69.01
2017-12-03T02:31:34.564Z,68.55
2017-12-03T02:34:11.590Z,67.79
2017-12-03T02:36:44.154Z,67.33
2017-12-03T02:39:18.167Z,66.48
2017-12-03T02:41:51.056Z,66.48
2017-12-03T02:44:27.975Z,66.68
2017-12-03T02:47:00.872Z,67.48
2017-12-03T02:49:35.192Z,67.65
2017-12-03T02:52:08.443Z,68.07
2017-12-03T02:54:45.578Z,66.91
2017-12-03T02:57:18.600Z,66.05
2017-12-03T02:59:52.384Z,65.73
2017-12-03T03:02:24.993Z,66.10
2017-12-03T03:04:56.590Z,65.99
2017-12-03T03:07:28.508Z,66.96
2017-12-03T03:10:01.150Z,66.65
2017-12-03T03:12:33.285Z,65.74
2017-12-03T03:15:10.185Z,64.59
2017-12-03T03:17:44.584Z,66.39
2017-12-03T03:20:20.093Z,66.80
2017-12-03T03:22:51.583Z,66.29
2017-12-03T03:25:22.977Z,65.37
2017-12-03T03:27:55.792Z,65.03
2017-12-03T03:30:31.000Z,66.11
2017-12-03T03:33:02.387Z,66.57
2017-12-03T03:35:35.390Z,67.17
2017-12-03T03:38:07.600Z,66.44
2017-12-03T03:40:41.887Z,65.91
2017-12-03T03:43:13.816Z,64.98
2017-12-03T03:45:47.708Z,64.88
2017-12-03T03:48:19.578Z,65.56
2017-12-03T03:50:51.878Z,64.76
2017-12-03T03:53:23.369Z,63.90
2017-12-03T03:55:54.971Z,63.41
2017-12-03T03:58:26.669Z,63.93
2017-12-03T04:00:58.787Z,63.13
2017-12-03T04:03:30.266Z,63.11
2017-12-03T04:06:01.879Z,63.38
2017-12-03T04:08:34.173Z,63.37
2017-12-03T04:11:05.578Z,63.02
2017-12-03T04:13:37.732Z,62.44
2017-12-03T04:16:09.977Z,63.23
2017-12-03T04:18:41.477Z,63.25
2017-12-03T04:21:13.188Z,62.21
2017-12-03T04:23:47.188Z,62.59
2017-12-03T04:26:20.731Z,62.16
2017-12-03T04:28:54.209Z,62.08
2017-12-03T04:31:31.042Z,62.78
2017-12-03T04:34:03.252Z,64.21
2017-12-03T04:36:36.019Z,63.25
2017-12-03T04:39:08.128Z,63.35
2017-12-03T04:41:40.024Z,64.01
2017-12-03T04:44:21.831Z,63.85
2017-12-03T04:46:53.830Z,65.73
2017-12-03T04:49:25.438Z,66.56
2017-12-03T04:51:58.148Z,67.01
2017-12-03T04:54:30.857Z,68.35
2017-12-03T04:57:02.755Z,67.37
2017-12-03T04:59:35.729Z,67.78
2017-12-03T05:02:07.942Z,69.33
2017-12-03T05:04:39.516Z,68.68
2017-12-03T05:07:11.029Z,70.60
2017-12-03T05:09:43.743Z,71.75
2017-12-03T05:12:15.514Z,72.51
2017-12-03T05:14:47.733Z,72.92
2017-12-03T05:17:19.629Z,72.03
2017-12-03T05:19:51.425Z,72.92
2017-12-03T05:22:22.726Z,73.93
2017-12-03T05:24:54.026Z,75.33
2017-12-03T05:27:25.526Z,76.00
2017-12-03T05:29:58.022Z,76.77
2017-12-03T05:32:33.622Z,76.24
2017-12-03T05:35:05.328Z,75.64
2017-12-03T05:37:36.827Z,76.85
2017-12-03T05:40:08.315Z,76.94
2017-12-03T05:42:39.616Z,76.44
2017-12-03T05:45:13.914Z,77.08
2017-12-03T05:47:46.210Z,76.68
2017-12-03T05:50:18.011Z,75.57
2017-12-03T05:52:50.127Z,74.64
2017-12-03T05:55:21.424Z,74.70
2017-12-03T05:57:54.314Z,75.24
2017-12-03T06:00:26.120Z,76.43
2017-12-03T06:02:58.638Z,75.89
2017-12-03T06:05:30.344Z,76.73
2017-12-03T06:08:06.941Z,77.29
2017-12-03T06:10:45.648Z,77.95
2017-12-03T06:13:17.644Z,78.08
2017-12-03T06:15:54.355Z,77.36
2017-12-03T06:18:26.645Z,77.42
2017-12-03T06:20:59.753Z,76.95
2017-12-03T06:23:31.767Z,77.46
2017-12-03T06:26:04.659Z,76.67
2017-12-03T06:28:36.566Z,76.01
2017-12-03T06:31:08.258Z,76.26
2017-12-03T06:33:40.710Z,77.31
2017-12-03T06:36:11.967Z,76.79
2017-12-03T06:38:44.864Z,77.48
2017-12-03T06:41:16.151Z,78.67
2017-12-03T06:43:54.048Z,78.15
2017-12-03T06:46:27.649Z,77.30
2017-12-03T06:48:59.846Z,77.93
2017-12-03T06:51:33.652Z,77.84
2017-12-03T06:54:05.549Z,77.83
2017-12-03T06:56:38.146Z,77.61
2017-12-03T06:59:09.817Z,76.51
2017-12-03T07:01:42.839Z,76.26
2017-12-03T07:04:14.142Z,76.55
2017-12-03T07:06:46.746Z,78.04
2017-12-03T07:09:19.052Z,78.91
2017-12-03T07:11:50.871Z,77.56
2017-12-03T07:14:23.854Z,76.80
2017-12-03T07:16:56.172Z,77.32
2017-12-03T07:19:27.665Z,77.77
2017-12-03T07:21:58.963Z,78.51
2017-12-03T07:24:31.463Z,78.43
2017-12-03T07:27:02.665Z,77.99
2017-12-03T07:29:34.670Z,77.89
2017-12-03T07:32:07.591Z,76.65
2017-12-03T07:34:39.871Z,78.30
2017-12-03T07:37:11.580Z,79.21
2017-12-03T07:39:43.475Z,79.54
2017-12-03T07:42:16.081Z,78.71
2017-12-03T07:44:47.488Z,78.50
2017-12-03T07:47:19.380Z,77.81
2017-12-03T07:49:51.075Z,78.60
2017-12-03T07:52:23.410Z,78.80
2017-12-03T07:54:55.579Z,78.74
2017-12-03T07:57:27.088Z,79.46
2017-12-03T07:59:58.772Z,78.49
2017-12-03T08:02:31.375Z,78.70
2017-12-03T08:05:02.972Z,77.72
2017-12-03T08:07:36.577Z,79.45
2017-12-03T08:10:07.789Z,78.24
2017-12-03T08:12:39.879Z,79.54
2017-12-03T08:15:12.711Z,79.27
2017-12-03T08:17:44.182Z,78.98
2017-12-03T08:20:17.395Z,79.24
2017-12-03T08:22:48.871Z,79.64
2017-12-03T08:25:20.168Z,78.86
2017-12-03T08:27:51.874Z,78.32
2017-12-03T08:30:23.364Z,78.17
2017-12-03T08:32:55.873Z,79.25
2017-12-03T08:35:27.354Z,79.69
2017-12-03T08:38:00.059Z,79.81
2017-12-03T08:40:32.068Z,79.88
2017-12-03T08:43:03.558Z,79.52
2017-12-03T08:45:36.471Z,80.34
2017-12-03T08:48:08.380Z,79.74
2017-12-03T08:50:40.076Z,80.14
2017-12-03T08:53:19.576Z,79.62
2017-12-03T08:55:51.302Z,78.79
2017-12-03T08:58:23.308Z,79.68
2017-12-03T09:00:57.243Z,79.95
2017-12-03T09:03:30.613Z,80.00
2017-12-03T09:06:03.836Z,79.60
2017-12-03T09:08:37.033Z,80.49
2017-12-03T09:11:09.033Z,79.45
2017-12-03T09:13:41.931Z,79.28
2017-12-03T09:16:16.925Z,79.79
2017-12-03T09:18:48.432Z,79.55
2017-12-03T09:21:20.029Z,79.08
2017-12-03T09:23:51.935Z,78.81
2017-12-03T09:26:23.347Z,78.35
2017-12-03T09:28:56.124Z,78.95
2017-12-03T09:31:28.717Z,78.40
2017-12-03T09:34:00.218Z,79.51
2017-12-03T09:36:31.525Z,79.59
2017-12-03T09:39:03.305Z,78.77
2017-12-03T09:41:35.729Z,78.92
2017-12-03T09:44:07.420Z,79.69
2017-12-03T09:46:45.305Z,79.61
2017-12-03T09:49:19.128Z,79.14
2017-12-03T09:51:52.415Z,79.75
2017-12-03T09:54:24.104Z,79.80
2017-12-03T09:56:59.702Z,79.25
2017-12-03T09:59:31.596Z,80.34
2017-12-03T10:02:03.146Z,80.05
2017-12-03T10:04:34.602Z,79.97
2017-12-03T10:07:12.707Z,79.78
2017-12-03T10:09:48.646Z,79.48
2017-12-03T10:12:26.731Z,81.17
2017-12-03T10:14:58.842Z,80.20
2017-12-03T10:17:30.830Z,80.23
2017-12-03T10:20:03.733Z,80.28
2017-12-03T10:22:42.323Z,81.22
2017-12-03T10:25:15.035Z,80.86
2017-12-03T10:27:51.657Z,80.23
2017-12-03T10:30:24.637Z,81.07
2017-12-03T10:32:56.341Z,80.67
2017-12-03T10:35:29.969Z,80.30
2017-12-03T10:38:09.844Z,80.98
2017-12-03T10:40:41.226Z,81.28
2017-12-03T10:43:14.891Z,81.09
2017-12-03T10:45:46.645Z,80.73
2017-12-03T10:48:18.330Z,80.61
2017-12-03T10:50:50.421Z,79.90
2017-12-03T10:53:21.923Z,79.22
2017-12-03T10:55:53.346Z,78.75
2017-12-03T10:58:28.541Z,78.08
2017-12-03T11:01:17.317Z,78.49
2017-12-03T11:03:49.028Z,78.86
2017-12-03T11:06:20.611Z,77.62
2017-12-03T11:08:52.211Z,77.31
2017-12-03T11:11:24.529Z,77.26
2017-12-03T11:13:56.326Z,78.37
2017-12-03T11:16:28.521Z,79.56
2017-12-03T11:19:01.225Z,79.83
2017-12-03T11:21:34.933Z,78.77
2017-12-03T11:24:07.628Z,79.65
2017-12-03T11:26:48.319Z,80.29
2017-12-03T11:29:26.129Z,79.89
2017-12-03T11:31:58.036Z,79.95
2017-12-03T11:34:30.513Z,78.93
2017-12-03T11:37:03.514Z,78.20
2017-12-03T11:39:42.414Z,77.95
2017-12-03T11:42:14.423Z,77.61
2017-12-03T11:44:48.345Z,78.28
2017-12-03T11:47:20.945Z,78.16
2017-12-03T11:49:52.447Z,77.80
2017-12-03T11:52:24.544Z,77.33
2017-12-03T11:54:57.059Z,77.05
2017-12-03T11:57:29.154Z,77.55
2017-12-03T12:00:01.443Z,78.32
2017-12-03T12:02:37.684Z,77.22
2017-12-03T12:05:09.582Z,76.69
2017-12-03T12:07:42.979Z,76.25
2017-12-03T12:10:18.155Z,76.21
2017-12-03T12:12:52.781Z,75.61
2017-12-03T12:15:28.456Z,75.35
2017-12-03T12:18:03.469Z,74.63
2017-12-03T12:20:36.853Z,74.61
2017-12-03T12:23:09.142Z,74.44
2017-12-03T12:25:43.251Z,74.74
2017-12-03T12:28:22.132Z,74.95
2017-12-03T12:30:55.046Z,75.28
2017-12-03T12:33:29.766Z,75.34
2017-12-03T12:36:01.420Z,75.35
2017-12-03T12:38:34.012Z,75.56
2017-12-03T12:41:05.523Z,75.68
2017-12-03T12:43:40.013Z,75.24
2017-12-03T12:48:41.780Z,75.45
2017-12-03T12:51:17.529Z,74.99
2017-12-03T12:53:51.840Z,75.18
2017-12-03T12:56:27.403Z,75.35
2017-12-03T12:59:05.035Z,75.25
2017-12-03T13:01:36.572Z,75.35
2017-12-03T13:04:08.402Z,75.14
2017-12-03T13:06:45.763Z,75.19
2017-12-03T13:09:19.900Z,74.76
2017-12-03T13:11:52.493Z,74.74
2017-12-03T13:14:26.204Z,74.91
2017-12-03T13:16:59.206Z,74.95
2017-12-03T13:19:34.935Z,75.11
2017-12-03T13:22:10.176Z,74.98
2017-12-03T13:24:51.915Z,75.17
2017-12-03T13:27:26.648Z,75.09
2017-12-03T13:30:01.046Z,75.17
2017-12-03T13:32:59.681Z,74.97
2017-12-03T13:35:41.625Z,75.26
2017-12-03T13:38:15.123Z,75.42
2017-12-03T13:43:26.298Z,74.66
2017-12-03T13:46:00.513Z,74.75
2017-12-03T13:48:45.603Z,74.69
2017-12-03T13:51:24.192Z,75.69
2017-12-03T13:53:58.921Z,75.87
2017-12-03T13:56:31.491Z,75.32
2017-12-03T13:59:10.396Z,75.16
2017-12-03T14:01:46.088Z,75.11
2017-12-03T14:04:18.996Z,75.03
2017-12-03T14:06:53.065Z,74.88
2017-12-03T14:09:27.106Z,74.78
2017-12-03T14:12:02.394Z,75.15
2017-12-03T14:17:19.809Z,75.56
2017-12-03T14:19:51.784Z,75.77
2017-12-03T14:22:27.357Z,76.10
2017-12-03T14:25:02.882Z,75.99
2017-12-03T14:27:37.536Z,76.25
2017-12-03T14:30:14.162Z,75.69
2017-12-03T14:32:45.299Z,75.92
2017-12-03T14:35:16.097Z,75.84
2017-12-03T14:37:48.764Z,75.68
2017-12-03T14:40:21.763Z,76.27
2017-12-03T14:42:54.977Z,76.29
2017-12-03T14:45:29.955Z,76.05
2017-12-03T14:48:09.858Z,75.54
2017-12-03T14:50:47.460Z,75.38
2017-12-03T14:53:18.810Z,75.67
2017-12-03T14:55:52.463Z,75.78
2017-12-03T14:58:25.661Z,75.70
2017-12-03T15:01:07.362Z,75.26
2017-12-03T15:03:41.959Z,75.31
2017-12-03T15:06:13.029Z,75.27
2017-12-03T15:08:45.089Z,75.36
2017-12-03T15:11:17.843Z,75.42
2017-12-03T15:13:49.855Z,75.63
2017-12-03T15:16:22.561Z,75.95
2017-12-03T15:18:55.865Z,75.75
2017-12-03T15:21:29.456Z,75.24
2017-12-03T15:24:00.301Z,74.73
2017-12-03T15:26:34.108Z,74.40
2017-12-03T15:29:10.067Z,75.11
2017-12-03T15:31:51.527Z,75.09
2017-12-03T15:34:24.804Z,74.57
2017-12-03T15:36:55.833Z,74.38
2017-12-03T15:39:29.410Z,74.49
2017-12-03T15:42:01.439Z,74.43
2017-12-03T15:44:33.528Z,74.61
2017-12-03T15:47:06.934Z,74.27
2017-12-03T15:49:49.288Z,74.07
2017-12-03T15:52:21.530Z,74.29
2017-12-03T15:54:54.143Z,74.42
2017-12-03T15:57:37.061Z,74.36
2017-12-03T16:00:17.936Z,73.99
2017-12-03T16:02:52.634Z,74.09
2017-12-03T16:05:25.528Z,74.14
2017-12-03T16:07:59.029Z,74.62
2017-12-03T16:10:32.212Z,74.59
2017-12-03T16:13:04.910Z,74.20
2017-12-03T16:15:40.484Z,74.75
2017-12-03T16:18:14.016Z,74.52
2017-12-03T16:20:53.404Z,74.52
2017-12-03T16:23:27.228Z,74.27
2017-12-03T16:26:01.339Z,74.14
2017-12-03T16:28:38.768Z,74.65
2017-12-03T16:31:11.812Z,74.07
2017-12-03T16:33:45.538Z,73.92
2017-12-03T16:36:17.906Z,74.23
2017-12-03T16:38:48.643Z,74.19
2017-12-03T16:41:22.955Z,74.62
2017-12-03T16:43:57.121Z,75.04
2017-12-03T16:46:30.322Z,75.19
2017-12-03T16:49:03.902Z,75.04
2017-12-03T16:51:36.447Z,75.03
2017-12-03T16:54:10.733Z,74.94
2017-12-03T16:56:46.607Z,75.25
2017-12-03T16:59:18.734Z,74.96
2017-12-03T17:01:53.636Z,74.76
2017-12-03T17:04:28.195Z,74.45
2017-12-03T17:06:59.563Z,74.76
2017-12-03T17:09:38.219Z,75.08
2017-12-03T17:12:14.119Z,75.28
2017-12-03T17:14:48.129Z,75.08
2017-12-03T17:17:21.824Z,74.76
2017-12-03T17:19:56.737Z,74.40
2017-12-03T17:22:30.654Z,74.89
2017-12-03T17:25:09.139Z,75.16
2017-12-03T17:27:43.697Z,75.13
2017-12-03T17:30:18.734Z,75.23
2017-12-03T17:32:59.258Z,75.36
2017-12-03T17:35:33.641Z,75.34
2017-12-03T17:38:06.312Z,75.23
2017-12-03T17:40:50.953Z,75.13
2017-12-03T17:43:31.446Z,75.50
2017-12-03T17:46:04.134Z,75.47
2017-12-03T17:48:37.127Z,75.29
2017-12-03T17:51:10.246Z,75.52
2017-12-03T17:53:45.930Z,75.60
2017-12-03T17:56:17.615Z,75.87
2017-12-03T17:58:49.577Z,76.14
2017-12-03T18:01:23.673Z,76.20
2017-12-03T18:04:02.596Z,76.39
2017-12-03T18:06:36.355Z,76.63
2017-12-03T18:09:08.516Z,76.63
2017-12-03T18:11:54.028Z,76.55
2017-12-03T18:14:39.489Z,76.77
2017-12-03T18:17:21.507Z,76.52
2017-12-03T18:19:53.755Z,76.68
2017-12-03T18:22:25.980Z,76.40
2017-12-03T18:24:58.164Z,76.04
2017-12-03T18:27:32.569Z,76.02
2017-12-03T18:30:09.162Z,75.77
2017-12-03T18:32:48.990Z,76.49
2017-12-03T18:35:24.707Z,76.71
2017-12-03T18:38:01.812Z,76.57
2017-12-03T18:40:36.927Z,76.55
2017-12-03T18:43:10.830Z,76.29
2017-12-03T18:45:45.117Z,76.11
2017-12-03T18:48:18.186Z,75.84
2017-12-03T18:50:53.309Z,75.93
2017-12-03T18:53:26.494Z,76.09
2017-12-03T18:56:00.301Z,76.03
2017-12-03T18:58:32.475Z,76.40
2017-12-03T19:01:04.770Z,76.37
2017-12-03T19:03:38.782Z,76.92
2017-12-03T19:06:11.491Z,77.17
2017-12-03T19:08:45.697Z,76.42
2017-12-03T19:11:18.410Z,76.09
2017-12-03T19:13:50.517Z,76.15
2017-12-03T19:16:22.050Z,76.06
2017-12-03T19:18:54.464Z,76.00
2017-12-03T19:21:26.621Z,76.15
2017-12-03T19:23:59.968Z,75.73
2017-12-03T19:29:22.489Z,75.49
2017-12-03T19:31:57.757Z,75.42
2017-12-03T19:34:29.697Z,75.65
2017-12-03T19:37:01.298Z,75.63
2017-12-03T19:39:33.983Z,75.46
2017-12-03T19:42:06.459Z,75.08
2017-12-03T19:44:39.068Z,74.90
2017-12-03T19:47:12.650Z,74.99
2017-12-03T19:49:46.210Z,75.17
2017-12-03T19:52:19.471Z,75.76
2017-12-03T19:54:54.993Z,76.62
2017-12-03T19:57:26.843Z,76.30
2017-12-03T19:59:58.976Z,76.11
2017-12-03T20:02:33.783Z,76.28
2017-12-03T20:05:04.432Z,76.27
2017-12-03T20:07:40.102Z,76.16
2017-12-03T20:10:12.093Z,75.73
2017-12-03T20:12:45.497Z,75.25
2017-12-03T20:15:26.294Z,74.97
2017-12-03T20:18:00.338Z,75.57
2017-12-03T20:20:33.616Z,75.99
2017-12-03T20:23:07.911Z,75.77
2017-12-03T20:25:40.401Z,75.60
2017-12-03T20:28:12.997Z,75.39
2017-12-03T20:30:49.182Z,74.88
2017-12-03T20:33:22.098Z,75.37
2017-12-03T20:35:55.940Z,75.63
2017-12-03T20:38:32.695Z,75.60
2017-12-03T20:41:05.087Z,75.09
2017-12-03T20:43:41.234Z,75.28
2017-12-03T20:46:14.977Z,75.08
2017-12-03T20:48:49.309Z,74.85
2017-12-03T20:51:21.586Z,74.50
2017-12-03T20:53:52.650Z,74.19
2017-12-03T20:56:24.732Z,74.78
2017-12-03T20:58:56.493Z,74.99
2017-12-03T21:01:29.008Z,74.72
2017-12-03T21:04:03.000Z,74.78
2017-12-03T21:06:35.424Z,74.81
2017-12-03T21:09:09.547Z,74.58
2017-12-03T21:11:47.931Z,74.35
2017-12-03T21:14:18.423Z,74.70
2017-12-03T21:16:52.050Z,75.17
2017-12-03T21:19:31.720Z,75.35
2017-12-03T21:22:05.746Z,75.25
2017-12-03T21:24:38.969Z,75.71
2017-12-03T21:27:15.641Z,76.23
2017-12-03T21:29:50.143Z,76.43
2017-12-03T21:32:23.377Z,76.39
2017-12-03T21:34:56.638Z,76.30
2017-12-03T21:37:28.685Z,76.28
2017-12-03T21:40:05.248Z,76.17
2017-12-03T21:42:42.957Z,76.98
2017-12-03T21:45:19.142Z,76.81
2017-12-03T21:47:54.032Z,76.24
2017-12-03T21:50:28.301Z,76.06
2017-12-03T21:53:02.646Z,75.70
2017-12-03T21:55:39.004Z,75.81
2017-12-03T21:58:12.846Z,76.06
2017-12-03T22:00:45.761Z,75.99
2017-12-03T22:03:19.824Z,76.12
2017-12-03T22:05:56.047Z,76.03
2017-12-03T22:08:28.159Z,76.21
2017-12-03T22:10:59.054Z,76.46
2017-12-03T22:13:31.113Z,76.28
2017-12-03T22:16:05.032Z,76.26
2017-12-03T22:18:40.022Z,76.30
2017-12-03T22:21:11.806Z,77.01
2017-12-03T22:23:45.001Z,76.92
2017-12-03T22:26:18.403Z,76.81
2017-12-03T22:28:52.826Z,76.75
2017-12-03T22:34:11.109Z,76.86
2017-12-03T22:37:01.880Z,76.70
2017-12-03T22:39:37.820Z,76.88
2017-12-03T22:42:09.702Z,76.92
2017-12-03T22:44:43.266Z,76.65
2017-12-03T22:47:15.311Z,76.70
2017-12-03T22:49:47.921Z,76.83
2017-12-03T22:52:20.035Z,76.89
2017-12-03T22:54:58.561Z,76.81
2017-12-03T22:57:31.981Z,76.85
2017-12-03T23:00:10.135Z,76.42
2017-12-03T23:02:44.655Z,76.59
2017-12-03T23:05:17.948Z,76.52
2017-12-03T23:07:53.130Z,76.76
2017-12-03T23:10:25.444Z,76.59
2017-12-03T23:12:57.361Z,76.11
2017-12-03T23:15:32.652Z,75.56
2017-12-03T23:18:05.310Z,75.59
2017-12-03T23:20:38.250Z,75.16
2017-12-03T23:23:10.243Z,75.11
2017-12-03T23:25:50.892Z,74.94
2017-12-03T23:28:27.135Z,74.80
2017-12-03T23:31:00.962Z,74.74
2017-12-03T23:33:34.945Z,74.65
2017-12-03T23:36:07.994Z,75.22
2017-12-03T23:38:41.028Z,75.62
2017-12-03T23:41:13.727Z,75.74
2017-12-03T23:43:47.980Z,75.78
2017-12-03T23:46:21.427Z,76.23
2017-12-03T23:48:53.552Z,76.51
2017-12-03T23:51:26.040Z,76.66
2017-12-03T23:53:59.294Z,76.77
2017-12-03T23:56:31.660Z,76.91
2017-12-03T23:59:04.849Z,76.91
